METAR Data
IDs: Format: Raw Decoded Include TAF

Data at: 1931 UTC 26 Sep 2021

ZHCC 261900Z 02002MPS 8000 NSC 20/18 Q1016 NOSIG